sensor_id;sensor_type;location;lat;lon;timestamp;pressure;altitude;pressure_sealevel;temperature;humidity
33949;BME280;20229;49.856;19.030;2022-09-09T00:01:33;101253.84;;;17.63;95.93
33949;BME280;20229;49.856;19.030;2022-09-09T00:17:12;101248.59;;;17.24;97.15
33949;BME280;20229;49.856;19.030;2022-09-09T00:22:21;101251.70;;;17.19;96.95
33949;BME280;20229;49.856;19.030;2022-09-09T00:27:37;101262.96;;;17.16;98.63
33949;BME280;20229;49.856;19.030;2022-09-09T00:32:44;101271.89;;;17.19;98.18
33949;BME280;20229;49.856;19.030;2022-09-09T00:37:48;101271.66;;;17.23;98.55
33949;BME280;20229;49.856;19.030;2022-09-09T00:48:12;101270.73;;;17.35;98.55
33949;BME280;20229;49.856;19.030;2022-09-09T00:58:34;101287.14;;;17.49;97.66
33949;BME280;20229;49.856;19.030;2022-09-09T01:03:42;101292.17;;;17.55;96.64
33949;BME280;20229;49.856;19.030;2022-09-09T01:25:30;101300.77;;;17.63;96.19
33949;BME280;20229;49.856;19.030;2022-09-09T01:29:51;101295.48;;;17.60;96.45
33949;BME280;20229;49.856;19.030;2022-09-09T01:34:55;101308.13;;;17.63;95.79
33949;BME280;20229;49.856;19.030;2022-09-09T01:39:58;101302.98;;;17.58;95.81
33949;BME280;20229;49.856;19.030;2022-09-09T01:45:03;101304.22;;;17.54;95.99
33949;BME280;20229;49.856;19.030;2022-09-09T01:50:10;101309.45;;;17.46;95.46
33949;BME280;20229;49.856;19.030;2022-09-09T01:55:16;101310.37;;;17.34;95.32
33949;BME280;20229;49.856;19.030;2022-09-09T02:00:21;101309.77;;;17.17;95.65
33949;BME280;20229;49.856;19.030;2022-09-09T02:16:01;101331.07;;;17.15;96.90
33949;BME280;20229;49.856;19.030;2022-09-09T02:21:12;101340.88;;;17.19;96.27
33949;BME280;20229;49.856;19.030;2022-09-09T02:26:17;101335.91;;;17.25;96.37
33949;BME280;20229;49.856;19.030;2022-09-09T02:31:36;101347.70;;;17.27;96.03
33949;BME280;20229;49.856;19.030;2022-09-09T02:36:42;101350.23;;;17.30;96.34
33949;BME280;20229;49.856;19.030;2022-09-09T02:42:04;101354.98;;;17.28;95.68
33949;BME280;20229;49.856;19.030;2022-09-09T02:47:16;101358.51;;;17.30;96.22
33949;BME280;20229;49.856;19.030;2022-09-09T02:52:33;101367.67;;;17.30;95.94
33949;BME280;20229;49.856;19.030;2022-09-09T02:57:41;101381.23;;;17.33;95.40
33949;BME280;20229;49.856;19.030;2022-09-09T03:02:53;101365.91;;;17.29;95.39
33949;BME280;20229;49.856;19.030;2022-09-09T03:08:00;101371.66;;;17.26;95.97
33949;BME280;20229;49.856;19.030;2022-09-09T03:13:18;101373.45;;;17.14;96.42
33949;BME280;20229;49.856;19.030;2022-09-09T03:18:22;101373.90;;;17.08;97.40
33949;BME280;20229;49.856;19.030;2022-09-09T03:23:44;101378.66;;;16.93;97.44
33949;BME280;20229;49.856;19.030;2022-09-09T03:28:48;101378.43;;;16.84;97.67
33949;BME280;20229;49.856;19.030;2022-09-09T03:34:10;101393.09;;;16.71;98.36
33949;BME280;20229;49.856;19.030;2022-09-09T03:39:13;101392.29;;;16.69;98.98
33949;BME280;20229;49.856;19.030;2022-09-09T03:44:34;101393.18;;;16.57;99.20
33949;BME280;20229;49.856;19.030;2022-09-09T03:49:38;101392.06;;;16.47;99.93
33949;BME280;20229;49.856;19.030;2022-09-09T03:55:00;101394.77;;;16.34;100.00
33949;BME280;20229;49.856;19.030;2022-09-09T04:00:06;101401.30;;;16.33;100.00
33949;BME280;20229;49.856;19.030;2022-09-09T04:05:25;101401.59;;;16.29;100.00
33949;BME280;20229;49.856;19.030;2022-09-09T04:10:28;101398.74;;;16.30;100.00
33949;BME280;20229;49.856;19.030;2022-09-09T04:15:56;101410.77;;;16.29;100.00
33949;BME280;20229;49.856;19.030;2022-09-09T04:21:00;101401.09;;;16.36;100.00
33949;BME280;20229;49.856;19.030;2022-09-09T04:26:18;101401.09;;;16.36;100.00
33949;BME280;20229;49.856;19.030;2022-09-09T04:31:23;101390.48;;;16.43;100.00
33949;BME280;20229;49.856;19.030;2022-09-09T04:36:42;101412.02;;;16.51;100.00
33949;BME280;20229;49.856;19.030;2022-09-09T04:41:46;101409.59;;;16.59;100.00
33949;BME280;20229;49.856;19.030;2022-09-09T04:47:08;101403.30;;;16.57;100.00
33949;BME280;20229;49.856;19.030;2022-09-09T04:52:12;101405.75;;;16.61;100.00
33949;BME280;20229;49.856;19.030;2022-09-09T04:57:34;101407.51;;;16.62;100.00
33949;BME280;20229;49.856;19.030;2022-09-09T05:02:38;101409.62;;;16.71;100.00
33949;BME280;20229;49.856;19.030;2022-09-09T05:08:07;101422.56;;;16.84;100.00
33949;BME280;20229;49.856;19.030;2022-09-09T05:13:11;101411.51;;;17.09;100.00
33949;BME280;20229;49.856;19.030;2022-09-09T05:18:24;101421.20;;;17.28;100.00
33949;BME280;20229;49.856;19.030;2022-09-09T05:23:28;101428.75;;;17.62;100.00
33949;BME280;20229;49.856;19.030;2022-09-09T05:28:50;101438.02;;;18.11;99.10
33949;BME280;20229;49.856;19.030;2022-09-09T05:33:53;101435.92;;;18.74;96.96
33949;BME280;20229;49.856;19.030;2022-09-09T05:39:15;101444.80;;;19.24;93.80
33949;BME280;20229;49.856;19.030;2022-09-09T05:44:19;101444.05;;;19.55;92.48
33949;BME280;20229;49.856;19.030;2022-09-09T05:49:40;101435.17;;;20.06;91.34
33949;BME280;20229;49.856;19.030;2022-09-09T05:54:44;101437.03;;;20.61;87.94
33949;BME280;20229;49.856;19.030;2022-09-09T06:00:07;101437.77;;;20.84;87.01
33949;BME280;20229;49.856;19.030;2022-09-09T06:05:11;101426.33;;;20.77;83.66
33949;BME280;20229;49.856;19.030;2022-09-09T06:10:31;101432.97;;;20.65;84.69
33949;BME280;20229;49.856;19.030;2022-09-09T06:15:34;101427.27;;;20.66;85.80
33949;BME280;20229;49.856;19.030;2022-09-09T06:21:02;101423.70;;;20.75;84.25
33949;BME280;20229;49.856;19.030;2022-09-09T06:26:11;101430.79;;;21.10;83.35
33949;BME280;20229;49.856;19.030;2022-09-09T06:31:24;101433.64;;;22.01;80.11
33949;BME280;20229;49.856;19.030;2022-09-09T06:36:33;101427.85;;;24.66;75.19
33949;BME280;20229;49.856;19.030;2022-09-09T06:41:47;101424.80;;;29.02;62.25
33949;BME280;20229;49.856;19.030;2022-09-09T06:46:52;101415.09;;;32.75;52.33
33949;BME280;20229;49.856;19.030;2022-09-09T06:52:13;101415.27;;;37.50;40.52
33949;BME280;20229;49.856;19.030;2022-09-09T06:57:16;101415.02;;;41.16;34.46
33949;BME280;20229;49.856;19.030;2022-09-09T07:04:50;101402.30;;;44.52;28.62
33949;BME280;20229;49.856;19.030;2022-09-09T07:10:15;101413.71;;;44.13;27.36
33949;BME280;20229;49.856;19.030;2022-09-09T07:15:19;101395.80;;;42.75;27.93
33949;BME280;20229;49.856;19.030;2022-09-09T07:20:40;101409.59;;;44.84;26.07
33949;BME280;20229;49.856;19.030;2022-09-09T07:25:45;101404.64;;;45.82;22.56
33949;BME280;20229;49.856;19.030;2022-09-09T07:31:06;101412.82;;;44.23;24.08
33949;BME280;20229;49.856;19.030;2022-09-09T07:36:15;101407.57;;;43.04;22.57
33949;BME280;20229;49.856;19.030;2022-09-09T07:41:36;101408.05;;;44.57;23.57
33949;BME280;20229;49.856;19.030;2022-09-09T07:46:41;101412.70;;;46.33;20.59
33949;BME280;20229;49.856;19.030;2022-09-09T07:51:56;101416.78;;;46.70;21.64
33949;BME280;20229;49.856;19.030;2022-09-09T07:56:59;101408.73;;;47.37;20.02
33949;BME280;20229;49.856;19.030;2022-09-09T08:02:21;101420.28;;;47.98;19.07
33949;BME280;20229;49.856;19.030;2022-09-09T08:07:24;101414.91;;;47.77;19.12
33949;BME280;20229;49.856;19.030;2022-09-09T08:12:46;101429.03;;;44.68;21.50
33949;BME280;20229;49.856;19.030;2022-09-09T08:17:49;101425.34;;;43.77;22.12
33949;BME280;20229;49.856;19.030;2022-09-09T08:23:11;101420.78;;;43.66;22.28
33949;BME280;20229;49.856;19.030;2022-09-09T08:28:15;101406.02;;;45.90;20.68
33949;BME280;20229;49.856;19.030;2022-09-09T08:33:37;101414.63;;;47.13;18.09
33949;BME280;20229;49.856;19.030;2022-09-09T08:38:49;101406.23;;;45.45;20.05
33949;BME280;20229;49.856;19.030;2022-09-09T08:54:34;101404.36;;;33.83;30.43
33949;BME280;20229;49.856;19.030;2022-09-09T08:59:39;101398.48;;;32.38;33.23
33949;BME280;20229;49.856;19.030;2022-09-09T09:15:26;101389.61;;;29.95;37.13
33949;BME280;20229;49.856;19.030;2022-09-09T09:20:48;101378.70;;;29.41;38.16
33949;BME280;20229;49.856;19.030;2022-09-09T09:25:46;101373.56;;;28.92;40.39
33949;BME280;20229;49.856;19.030;2022-09-09T09:30:55;101377.91;;;28.80;40.86
33949;BME280;20229;49.856;19.030;2022-09-09T09:36:08;101385.17;;;28.89;39.34
33949;BME280;20229;49.856;19.030;2022-09-09T09:41:12;101376.53;;;29.14;39.93
33949;BME280;20229;49.856;19.030;2022-09-09T09:46:33;101371.77;;;29.14;40.08
33949;BME280;20229;49.856;19.030;2022-09-09T09:51:36;101382.85;;;29.16;38.64
33949;BME280;20229;49.856;19.030;2022-09-09T10:02:23;101394.77;;;28.57;40.43
33949;BME280;20229;49.856;19.030;2022-09-09T10:07:29;101385.73;;;28.70;40.44
33949;BME280;20229;49.856;19.030;2022-09-09T10:28:33;101400.70;;;29.38;37.85
33949;BME280;20229;49.856;19.030;2022-09-09T10:33:59;101388.45;;;28.78;38.86
33949;BME280;20229;49.856;19.030;2022-09-09T10:39:16;101388.60;;;28.39;39.95
33949;BME280;20229;49.856;19.030;2022-09-09T11:00:01;101390.68;;;28.36;39.01
33949;BME280;20229;49.856;19.030;2022-09-09T11:05:19;101390.55;;;28.30;41.28
33949;BME280;20229;49.856;19.030;2022-09-09T11:15:44;101386.06;;;28.21;41.48
33949;BME280;20229;49.856;19.030;2022-09-09T11:21:02;101405.13;;;28.02;41.67
33949;BME280;20229;49.856;19.030;2022-09-09T11:26:03;101404.36;;;27.77;42.13
33949;BME280;20229;49.856;19.030;2022-09-09T11:41:38;101408.45;;;27.58;42.98
33949;BME280;20229;49.856;19.030;2022-09-09T11:46:42;101419.80;;;27.81;42.09
33949;BME280;20229;49.856;19.030;2022-09-09T11:51:46;101412.48;;;28.03;40.98
33949;BME280;20229;49.856;19.030;2022-09-09T11:56:50;101396.89;;;28.01;41.12
33949;BME280;20229;49.856;19.030;2022-09-09T12:02:13;101405.75;;;28.12;42.16
33949;BME280;20229;49.856;19.030;2022-09-09T12:12:33;101408.10;;;28.01;41.67
33949;BME280;20229;49.856;19.030;2022-09-09T12:17:46;101415.34;;;27.95;41.52
33949;BME280;20229;49.856;19.030;2022-09-09T12:33:23;101401.59;;;28.63;41.19
33949;BME280;20229;49.856;19.030;2022-09-09T12:38:34;101399.08;;;28.68;41.43
33949;BME280;20229;49.856;19.030;2022-09-09T12:43:43;101404.21;;;28.41;41.04
33949;BME280;20229;49.856;19.030;2022-09-09T12:48:46;101392.42;;;28.15;40.78
33949;BME280;20229;49.856;19.030;2022-09-09T12:54:13;101395.27;;;27.75;41.39
33949;BME280;20229;49.856;19.030;2022-09-09T12:59:27;101384.78;;;27.61;41.73
33949;BME280;20229;49.856;19.030;2022-09-09T13:04:34;101393.00;;;27.62;42.61
33949;BME280;20229;49.856;19.030;2022-09-09T13:09:37;101384.14;;;27.90;42.85
33949;BME280;20229;49.856;19.030;2022-09-09T13:14:59;101370.39;;;28.03;42.25
33949;BME280;20229;49.856;19.030;2022-09-09T13:20:03;101364.44;;;27.98;41.65
33949;BME280;20229;49.856;19.030;2022-09-09T13:25:29;101376.16;;;27.71;41.71
33949;BME280;20229;49.856;19.030;2022-09-09T13:30:35;101363.63;;;27.42;42.64
33949;BME280;20229;49.856;19.030;2022-09-09T13:35:55;101386.83;;;27.11;43.35
33949;BME280;20229;49.856;19.030;2022-09-09T13:41:09;101371.43;;;26.99;43.38
33949;BME280;20229;49.856;19.030;2022-09-09T13:46:25;101364.80;;;26.84;43.63
33949;BME280;20229;49.856;19.030;2022-09-09T13:56:48;101351.52;;;26.69;44.38
33949;BME280;20229;49.856;19.030;2022-09-09T14:01:52;101341.36;;;26.77;44.50
33949;BME280;20229;49.856;19.030;2022-09-09T14:07:05;101336.59;;;26.85;43.78
33949;BME280;20229;49.856;19.030;2022-09-09T14:12:12;101322.40;;;26.95;43.18
33949;BME280;20229;49.856;19.030;2022-09-09T14:17:30;101333.45;;;26.88;44.91
33949;BME280;20229;49.856;19.030;2022-09-09T14:22:35;101332.24;;;26.75;44.88
33949;BME280;20229;49.856;19.030;2022-09-09T14:27:56;101329.46;;;26.66;45.11
33949;BME280;20229;49.856;19.030;2022-09-09T14:32:59;101334.36;;;26.73;44.81
33949;BME280;20229;49.856;19.030;2022-09-09T14:38:21;101329.98;;;26.54;44.26
33949;BME280;20229;49.856;19.030;2022-09-09T14:43:25;101314.93;;;26.22;45.12
33949;BME280;20229;49.856;19.030;2022-09-09T14:48:47;101333.23;;;25.84;45.65
33949;BME280;20229;49.856;19.030;2022-09-09T14:53:57;101319.38;;;25.32;47.93
33949;BME280;20229;49.856;19.030;2022-09-09T14:59:12;101315.78;;;24.87;48.26
33949;BME280;20229;49.856;19.030;2022-09-09T15:04:19;101328.24;;;24.67;49.96
33949;BME280;20229;49.856;19.030;2022-09-09T15:09:37;101337.52;;;24.49;49.90
33949;BME280;20229;49.856;19.030;2022-09-09T15:14:40;101332.73;;;24.60;49.48
33949;BME280;20229;49.856;19.030;2022-09-09T15:20:04;101340.92;;;24.61;49.24
33949;BME280;20229;49.856;19.030;2022-09-09T15:25:08;101337.09;;;24.62;49.65
33949;BME280;20229;49.856;19.030;2022-09-09T15:30:28;101340.78;;;24.45;50.56
33949;BME280;20229;49.856;19.030;2022-09-09T15:35:31;101341.81;;;24.26;51.24
33949;BME280;20229;49.856;19.030;2022-09-09T15:40:54;101341.56;;;23.83;53.76
33949;BME280;20229;49.856;19.030;2022-09-09T15:51:18;101337.15;;;22.98;57.98
33949;BME280;20229;49.856;19.030;2022-09-09T15:56:23;101336.92;;;22.62;58.63
33949;BME280;20229;49.856;19.030;2022-09-09T16:01:44;101342.95;;;22.29;58.81
33949;BME280;20229;49.856;19.030;2022-09-09T16:06:47;101336.51;;;22.09;60.03
33949;BME280;20229;49.856;19.030;2022-09-09T16:12:09;101340.59;;;21.85;63.15
33949;BME280;20229;49.856;19.030;2022-09-09T16:17:15;101338.50;;;21.68;63.77
33949;BME280;20229;49.856;19.030;2022-09-09T16:22:34;101334.66;;;21.50;64.80
33949;BME280;20229;49.856;19.030;2022-09-09T16:27:37;101329.23;;;21.38;65.22
33949;BME280;20229;49.856;19.030;2022-09-09T16:32:59;101332.05;;;21.17;66.07
33949;BME280;20229;49.856;19.030;2022-09-09T16:38:02;101329.05;;;20.99;65.61
33949;BME280;20229;49.856;19.030;2022-09-09T16:43:25;101328.48;;;20.75;66.57
33949;BME280;20229;49.856;19.030;2022-09-09T16:48:34;101332.00;;;20.56;67.38
33949;BME280;20229;49.856;19.030;2022-09-09T16:53:51;101323.79;;;20.34;68.77
33949;BME280;20229;49.856;19.030;2022-09-09T16:58:59;101329.81;;;20.18;69.34
33949;BME280;20229;49.856;19.030;2022-09-09T17:09:27;101338.27;;;19.84;71.73
33949;BME280;20229;49.856;19.030;2022-09-09T17:14:41;101332.88;;;19.71;72.51
33949;BME280;20229;49.856;19.030;2022-09-09T17:19:44;101332.76;;;19.62;73.14
33949;BME280;20229;49.856;19.030;2022-09-09T17:25:07;101339.57;;;19.46;73.61
33949;BME280;20229;49.856;19.030;2022-09-09T17:30:11;101345.65;;;19.40;73.68
33949;BME280;20229;49.856;19.030;2022-09-09T17:35:32;101359.48;;;19.29;74.39
33949;BME280;20229;49.856;19.030;2022-09-09T17:40:36;101360.88;;;19.23;74.43
33949;BME280;20229;49.856;19.030;2022-09-09T17:46:06;101381.25;;;19.11;76.20
33949;BME280;20229;49.856;19.030;2022-09-09T17:51:15;101380.62;;;19.07;76.15
33949;BME280;20229;49.856;19.030;2022-09-09T17:56:24;101395.23;;;18.98;76.95
33949;BME280;20229;49.856;19.030;2022-09-09T18:01:32;101384.40;;;18.95;77.02
33949;BME280;20229;49.856;19.030;2022-09-09T18:06:51;101398.96;;;18.86;78.29
33949;BME280;20229;49.856;19.030;2022-09-09T18:11:57;101395.33;;;18.85;77.73
33949;BME280;20229;49.856;19.030;2022-09-09T18:17:14;101398.71;;;18.78;78.96
33949;BME280;20229;49.856;19.030;2022-09-09T18:22:17;101405.36;;;18.75;78.84
33949;BME280;20229;49.856;19.030;2022-09-09T18:27:40;101415.99;;;18.69;79.98
33949;BME280;20229;49.856;19.030;2022-09-09T18:32:43;101414.09;;;18.69;79.39
33949;BME280;20229;49.856;19.030;2022-09-09T18:38:05;101422.27;;;18.59;80.67
33949;BME280;20229;49.856;19.030;2022-09-09T18:43:08;101405.91;;;18.56;79.93
33949;BME280;20229;49.856;19.030;2022-09-09T18:48:34;101403.63;;;18.50;80.98
33949;BME280;20229;49.856;19.030;2022-09-09T18:53:38;101387.17;;;18.49;80.30
33949;BME280;20229;49.856;19.030;2022-09-09T18:59:03;101383.23;;;18.40;81.48
33949;BME280;20229;49.856;19.030;2022-09-09T19:04:09;101406.73;;;18.34;81.48
33949;BME280;20229;49.856;19.030;2022-09-09T19:09:24;101404.02;;;18.22;82.72
33949;BME280;20229;49.856;19.030;2022-09-09T19:14:29;101395.23;;;18.17;82.17
33949;BME280;20229;49.856;19.030;2022-09-09T19:19:48;101408.73;;;18.08;82.93
33949;BME280;20229;49.856;19.030;2022-09-09T19:24:54;101409.98;;;18.04;83.46
33949;BME280;20229;49.856;19.030;2022-09-09T19:30:14;101406.68;;;17.99;83.57
33949;BME280;20229;49.856;19.030;2022-09-09T19:35:19;101407.57;;;18.00;82.47
33949;BME280;20229;49.856;19.030;2022-09-09T19:40:39;101402.50;;;17.94;83.54
33949;BME280;20229;49.856;19.030;2022-09-09T19:45:44;101411.80;;;17.93;83.43
33949;BME280;20229;49.856;19.030;2022-09-09T19:51:07;101412.25;;;17.86;82.79
33949;BME280;20229;49.856;19.030;2022-09-09T19:56:11;101409.49;;;17.86;82.73
33949;BME280;20229;49.856;19.030;2022-09-09T20:01:32;101406.09;;;17.83;81.96
33949;BME280;20229;49.856;19.030;2022-09-09T20:06:38;101407.52;;;17.88;80.99
33949;BME280;20229;49.856;19.030;2022-09-09T20:11:55;101412.15;;;17.88;81.16
33949;BME280;20229;49.856;19.030;2022-09-09T20:16:59;101399.87;;;17.92;80.87
33949;BME280;20229;49.856;19.030;2022-09-09T20:22:21;101394.34;;;17.92;81.15
33949;BME280;20229;49.856;19.030;2022-09-09T20:27:24;101392.34;;;17.94;81.17
33949;BME280;20229;49.856;19.030;2022-09-09T20:32:46;101394.57;;;17.89;82.05
33949;BME280;20229;49.856;19.030;2022-09-09T20:37:49;101405.39;;;17.92;81.64
33949;BME280;20229;49.856;19.030;2022-09-09T20:43:12;101405.63;;;17.89;81.23
33949;BME280;20229;49.856;19.030;2022-09-09T20:48:15;101395.97;;;17.95;80.61
33949;BME280;20229;49.856;19.030;2022-09-09T20:53:38;101396.10;;;17.93;80.84
33949;BME280;20229;49.856;19.030;2022-09-09T20:58:41;101393.12;;;17.96;81.11
33949;BME280;20229;49.856;19.030;2022-09-09T21:04:04;101405.16;;;17.95;81.00
33949;BME280;20229;49.856;19.030;2022-09-09T21:09:07;101390.98;;;18.00;80.96
33949;BME280;20229;49.856;19.030;2022-09-09T21:14:29;101386.57;;;17.97;81.50
33949;BME280;20229;49.856;19.030;2022-09-09T21:19:34;101382.56;;;18.01;82.18
33949;BME280;20229;49.856;19.030;2022-09-09T21:24:54;101386.48;;;17.99;83.24
33949;BME280;20229;49.856;19.030;2022-09-09T21:29:57;101381.93;;;17.98;83.80
33949;BME280;20229;49.856;19.030;2022-09-09T21:35:20;101399.87;;;17.92;84.51
33949;BME280;20229;49.856;19.030;2022-09-09T21:40:23;101407.16;;;17.93;83.53
33949;BME280;20229;49.856;19.030;2022-09-09T21:45:46;101397.98;;;17.93;83.13
33949;BME280;20229;49.856;19.030;2022-09-09T21:50:49;101390.21;;;17.98;82.63
33949;BME280;20229;49.856;19.030;2022-09-09T21:56:14;101392.09;;;17.97;82.84
33949;BME280;20229;49.856;19.030;2022-09-09T22:01:17;101389.98;;;18.01;82.21
33949;BME280;20229;49.856;19.030;2022-09-09T22:06:37;101393.77;;;18.00;83.37
33949;BME280;20229;49.856;19.030;2022-09-09T22:11:40;101394.41;;;18.03;83.34
33949;BME280;20229;49.856;19.030;2022-09-09T22:17:03;101392.00;;;17.99;84.58
33949;BME280;20229;49.856;19.030;2022-09-09T22:22:08;101393.84;;;17.98;84.62
33949;BME280;20229;49.856;19.030;2022-09-09T22:27:28;101389.79;;;17.91;85.73
33949;BME280;20229;49.856;19.030;2022-09-09T22:32:31;101381.77;;;17.88;85.89
33949;BME280;20229;49.856;19.030;2022-09-09T22:37:54;101376.94;;;17.79;86.32
33949;BME280;20229;49.856;19.030;2022-09-09T22:42:58;101373.40;;;17.77;86.93
33949;BME280;20229;49.856;19.030;2022-09-09T22:48:19;101386.01;;;17.68;88.00
33949;BME280;20229;49.856;19.030;2022-09-09T22:53:23;101390.00;;;17.64;88.40
33949;BME280;20229;49.856;19.030;2022-09-09T22:58:46;101382.30;;;17.56;88.37
33949;BME280;20229;49.856;19.030;2022-09-09T23:03:50;101373.01;;;17.57;88.58
33949;BME280;20229;49.856;19.030;2022-09-09T23:09:11;101371.70;;;17.50;89.50
33949;BME280;20229;49.856;19.030;2022-09-09T23:14:14;101360.90;;;17.47;89.33
33949;BME280;20229;49.856;19.030;2022-09-09T23:19:36;101353.84;;;17.43;90.08
33949;BME280;20229;49.856;19.030;2022-09-09T23:24:40;101349.30;;;17.42;90.31
33949;BME280;20229;49.856;19.030;2022-09-09T23:30:02;101367.09;;;17.38;90.97
33949;BME280;20229;49.856;19.030;2022-09-09T23:35:06;101365.11;;;17.40;91.21
33949;BME280;20229;49.856;19.030;2022-09-09T23:40:27;101369.20;;;17.34;91.47
33949;BME280;20229;49.856;19.030;2022-09-09T23:45:33;101362.93;;;17.32;91.67
33949;BME280;20229;49.856;19.030;2022-09-09T23:50:53;101359.96;;;17.23;91.81
33949;BME280;20229;49.856;19.030;2022-09-09T23:55:57;101358.30;;;17.20;91.83
